sensor_id;sensor_type;location;lat;lon;timestamp;P1;durP1;ratioP1;P2;durP2;ratioP2
57309;SDS011;43153;50.984;18.204;2023-03-23T00:01:56;15.90;;;6.90;;
57309;SDS011;43153;50.984;18.204;2023-03-23T00:04:35;15.00;;;6.30;;
57309;SDS011;43153;50.984;18.204;2023-03-23T00:07:02;14.80;;;5.90;;
57309;SDS011;43153;50.984;18.204;2023-03-23T00:09:35;21.60;;;7.40;;
57309;SDS011;43153;50.984;18.204;2023-03-23T00:12:07;14.60;;;6.50;;
57309;SDS011;43153;50.984;18.204;2023-03-23T00:14:33;14.80;;;6.40;;
57309;SDS011;43153;50.984;18.204;2023-03-23T00:17:08;14.80;;;6.50;;
57309;SDS011;43153;50.984;18.204;2023-03-23T00:19:52;17.30;;;7.40;;
57309;SDS011;43153;50.984;18.204;2023-03-23T00:22:24;18.70;;;7.20;;
57309;SDS011;43153;50.984;18.204;2023-03-23T00:25:05;14.70;;;6.50;;
57309;SDS011;43153;50.984;18.204;2023-03-23T00:27:35;18.70;;;7.30;;
57309;SDS011;43153;50.984;18.204;2023-03-23T00:30:03;18.60;;;7.70;;
57309;SDS011;43153;50.984;18.204;2023-03-23T00:32:30;18.70;;;6.80;;
57309;SDS011;43153;50.984;18.204;2023-03-23T00:34:58;14.10;;;6.80;;
57309;SDS011;43153;50.984;18.204;2023-03-23T00:37:25;13.40;;;5.80;;
57309;SDS011;43153;50.984;18.204;2023-03-23T00:39:55;15.30;;;5.70;;
57309;SDS011;43153;50.984;18.204;2023-03-23T00:42:34;14.50;;;6.10;;
57309;SDS011;43153;50.984;18.204;2023-03-23T00:45:09;19.40;;;7.10;;
57309;SDS011;43153;50.984;18.204;2023-03-23T00:47:44;15.90;;;6.80;;
57309;SDS011;43153;50.984;18.204;2023-03-23T00:50:12;19.10;;;6.60;;
57309;SDS011;43153;50.984;18.204;2023-03-23T00:52:43;20.20;;;8.50;;
57309;SDS011;43153;50.984;18.204;2023-03-23T00:55:18;27.60;;;10.40;;
57309;SDS011;43153;50.984;18.204;2023-03-23T00:57:44;25.40;;;10.60;;
57309;SDS011;43153;50.984;18.204;2023-03-23T01:00:12;27.90;;;11.00;;
57309;SDS011;43153;50.984;18.204;2023-03-23T01:02:42;41.10;;;12.40;;
57309;SDS011;43153;50.984;18.204;2023-03-23T01:05:19;31.70;;;13.80;;
57309;SDS011;43153;50.984;18.204;2023-03-23T01:07:51;26.90;;;13.30;;
57309;SDS011;43153;50.984;18.204;2023-03-23T01:10:25;24.00;;;10.10;;
57309;SDS011;43153;50.984;18.204;2023-03-23T01:12:54;20.40;;;9.00;;
57309;SDS011;43153;50.984;18.204;2023-03-23T01:15:25;20.00;;;8.90;;
57309;SDS011;43153;50.984;18.204;2023-03-23T01:17:58;17.80;;;7.90;;
57309;SDS011;43153;50.984;18.204;2023-03-23T01:20:27;16.80;;;6.60;;
57309;SDS011;43153;50.984;18.204;2023-03-23T01:23:04;17.40;;;7.00;;
57309;SDS011;43153;50.984;18.204;2023-03-23T01:26:09;20.10;;;7.40;;
57309;SDS011;43153;50.984;18.204;2023-03-23T01:28:40;26.30;;;10.50;;
57309;SDS011;43153;50.984;18.204;2023-03-23T01:31:11;35.60;;;13.50;;
57309;SDS011;43153;50.984;18.204;2023-03-23T01:33:40;31.90;;;12.00;;
57309;SDS011;43153;50.984;18.204;2023-03-23T01:36:19;27.70;;;11.70;;
57309;SDS011;43153;50.984;18.204;2023-03-23T01:38:48;26.80;;;10.10;;
57309;SDS011;43153;50.984;18.204;2023-03-23T01:41:16;20.00;;;7.20;;
57309;SDS011;43153;50.984;18.204;2023-03-23T01:43:59;17.40;;;7.20;;
57309;SDS011;43153;50.984;18.204;2023-03-23T01:46:28;23.70;;;8.80;;
57309;SDS011;43153;50.984;18.204;2023-03-23T01:49:06;18.10;;;7.90;;
57309;SDS011;43153;50.984;18.204;2023-03-23T01:51:48;17.90;;;7.90;;
57309;SDS011;43153;50.984;18.204;2023-03-23T01:54:17;34.30;;;14.50;;
57309;SDS011;43153;50.984;18.204;2023-03-23T01:57:10;39.50;;;16.70;;
57309;SDS011;43153;50.984;18.204;2023-03-23T01:59:39;39.30;;;18.90;;
57309;SDS011;43153;50.984;18.204;2023-03-23T02:02:11;41.60;;;18.00;;
57309;SDS011;43153;50.984;18.204;2023-03-23T02:04:49;36.30;;;17.50;;
57309;SDS011;43153;50.984;18.204;2023-03-23T02:07:17;33.60;;;14.50;;
57309;SDS011;43153;50.984;18.204;2023-03-23T02:09:54;30.50;;;15.30;;
57309;SDS011;43153;50.984;18.204;2023-03-23T02:12:20;34.30;;;14.60;;
57309;SDS011;43153;50.984;18.204;2023-03-23T02:14:47;25.70;;;11.80;;
57309;SDS011;43153;50.984;18.204;2023-03-23T02:17:22;21.70;;;9.40;;
57309;SDS011;43153;50.984;18.204;2023-03-23T03:03:06;13.70;;;6.80;;
57309;SDS011;43153;50.984;18.204;2023-03-23T03:11:13;29.90;;;13.70;;
57309;SDS011;43153;50.984;18.204;2023-03-23T03:21:46;36.90;;;17.20;;
57309;SDS011;43153;50.984;18.204;2023-03-23T03:24:18;28.40;;;13.70;;
57309;SDS011;43153;50.984;18.204;2023-03-23T03:26:56;22.50;;;10.60;;
57309;SDS011;43153;50.984;18.204;2023-03-23T03:29:36;19.00;;;7.70;;
57309;SDS011;43153;50.984;18.204;2023-03-23T03:32:08;15.80;;;7.10;;
57309;SDS011;43153;50.984;18.204;2023-03-23T03:34:49;19.90;;;7.70;;
57309;SDS011;43153;50.984;18.204;2023-03-23T03:37:17;21.00;;;6.80;;
57309;SDS011;43153;50.984;18.204;2023-03-23T03:39:47;26.00;;;6.60;;
57309;SDS011;43153;50.984;18.204;2023-03-23T03:42:16;14.00;;;6.00;;
57309;SDS011;43153;50.984;18.204;2023-03-23T03:44:42;12.80;;;5.70;;
57309;SDS011;43153;50.984;18.204;2023-03-23T03:47:09;13.70;;;6.20;;
57309;SDS011;43153;50.984;18.204;2023-03-23T03:49:38;13.00;;;5.90;;
57309;SDS011;43153;50.984;18.204;2023-03-23T03:52:04;13.80;;;6.10;;
57309;SDS011;43153;50.984;18.204;2023-03-23T03:54:35;13.60;;;6.40;;
57309;SDS011;43153;50.984;18.204;2023-03-23T03:57:08;14.10;;;6.70;;
57309;SDS011;43153;50.984;18.204;2023-03-23T03:59:39;17.80;;;7.50;;
57309;SDS011;43153;50.984;18.204;2023-03-23T04:02:13;13.80;;;6.40;;
57309;SDS011;43153;50.984;18.204;2023-03-23T04:04:51;14.50;;;5.80;;
57309;SDS011;43153;50.984;18.204;2023-03-23T04:07:18;14.20;;;6.10;;
57309;SDS011;43153;50.984;18.204;2023-03-23T04:12:16;24.70;;;8.50;;
57309;SDS011;43153;50.984;18.204;2023-03-23T04:14:46;51.10;;;14.50;;
57309;SDS011;43153;50.984;18.204;2023-03-23T04:17:20;47.20;;;15.30;;
57309;SDS011;43153;50.984;18.204;2023-03-23T04:20:08;74.30;;;23.80;;
57309;SDS011;43153;50.984;18.204;2023-03-23T04:22:43;89.40;;;26.50;;
57309;SDS011;43153;50.984;18.204;2023-03-23T04:25:18;114.60;;;28.50;;
57309;SDS011;43153;50.984;18.204;2023-03-23T04:27:49;113.00;;;29.30;;
57309;SDS011;43153;50.984;18.204;2023-03-23T04:30:25;113.80;;;30.20;;
57309;SDS011;43153;50.984;18.204;2023-03-23T04:32:53;111.70;;;28.20;;
57309;SDS011;43153;50.984;18.204;2023-03-23T04:35:30;97.70;;;26.40;;
57309;SDS011;43153;50.984;18.204;2023-03-23T04:38:02;80.30;;;24.10;;
57309;SDS011;43153;50.984;18.204;2023-03-23T04:40:30;63.80;;;21.60;;
57309;SDS011;43153;50.984;18.204;2023-03-23T04:43:00;47.10;;;15.20;;
57309;SDS011;43153;50.984;18.204;2023-03-23T04:45:36;34.60;;;13.50;;
57309;SDS011;43153;50.984;18.204;2023-03-23T04:48:16;27.00;;;10.80;;
57309;SDS011;43153;50.984;18.204;2023-03-23T04:50:46;24.70;;;10.30;;
57309;SDS011;43153;50.984;18.204;2023-03-23T04:53:13;17.70;;;7.80;;
57309;SDS011;43153;50.984;18.204;2023-03-23T04:55:39;17.20;;;8.90;;
57309;SDS011;43153;50.984;18.204;2023-03-23T04:58:06;20.20;;;10.00;;
57309;SDS011;43153;50.984;18.204;2023-03-23T05:00:33;19.40;;;9.30;;
57309;SDS011;43153;50.984;18.204;2023-03-23T05:03:00;21.60;;;8.90;;
57309;SDS011;43153;50.984;18.204;2023-03-23T05:05:26;15.60;;;8.30;;
57309;SDS011;43153;50.984;18.204;2023-03-23T05:07:56;17.00;;;7.80;;
57309;SDS011;43153;50.984;18.204;2023-03-23T05:10:22;17.00;;;8.30;;
57309;SDS011;43153;50.984;18.204;2023-03-23T05:12:52;17.40;;;8.80;;
57309;SDS011;43153;50.984;18.204;2023-03-23T05:15:21;23.30;;;10.40;;
57309;SDS011;43153;50.984;18.204;2023-03-23T05:17:56;25.20;;;11.40;;
57309;SDS011;43153;50.984;18.204;2023-03-23T05:20:24;25.30;;;11.50;;
57309;SDS011;43153;50.984;18.204;2023-03-23T05:22:55;31.90;;;12.30;;
57309;SDS011;43153;50.984;18.204;2023-03-23T05:25:25;35.40;;;14.60;;
57309;SDS011;43153;50.984;18.204;2023-03-23T05:28:01;40.00;;;15.20;;
57309;SDS011;43153;50.984;18.204;2023-03-23T05:30:31;39.30;;;16.00;;
57309;SDS011;43153;50.984;18.204;2023-03-23T05:32:58;43.40;;;16.30;;
57309;SDS011;43153;50.984;18.204;2023-03-23T05:35:25;34.20;;;13.90;;
57309;SDS011;43153;50.984;18.204;2023-03-23T05:37:53;27.80;;;12.30;;
57309;SDS011;43153;50.984;18.204;2023-03-23T05:40:34;27.80;;;11.70;;
57309;SDS011;43153;50.984;18.204;2023-03-23T05:43:02;17.70;;;8.00;;
57309;SDS011;43153;50.984;18.204;2023-03-23T05:45:29;13.00;;;7.00;;
57309;SDS011;43153;50.984;18.204;2023-03-23T05:48:02;14.50;;;6.50;;
57309;SDS011;43153;50.984;18.204;2023-03-23T05:50:29;12.80;;;6.80;;
57309;SDS011;43153;50.984;18.204;2023-03-23T05:52:55;12.30;;;6.50;;
57309;SDS011;43153;50.984;18.204;2023-03-23T05:55:21;12.50;;;6.00;;
57309;SDS011;43153;50.984;18.204;2023-03-23T05:57:47;15.50;;;6.50;;
57309;SDS011;43153;50.984;18.204;2023-03-23T06:00:14;13.70;;;6.60;;
57309;SDS011;43153;50.984;18.204;2023-03-23T06:02:45;11.10;;;6.10;;
57309;SDS011;43153;50.984;18.204;2023-03-23T06:05:14;13.00;;;5.80;;
57309;SDS011;43153;50.984;18.204;2023-03-23T06:07:41;14.50;;;6.10;;
57309;SDS011;43153;50.984;18.204;2023-03-23T06:10:10;15.80;;;6.30;;
57309;SDS011;43153;50.984;18.204;2023-03-23T06:12:39;13.90;;;6.10;;
57309;SDS011;43153;50.984;18.204;2023-03-23T06:15:09;16.70;;;6.40;;
57309;SDS011;43153;50.984;18.204;2023-03-23T06:17:39;12.10;;;5.60;;
57309;SDS011;43153;50.984;18.204;2023-03-23T06:20:09;12.50;;;5.90;;
57309;SDS011;43153;50.984;18.204;2023-03-23T06:22:37;11.60;;;5.30;;
57309;SDS011;43153;50.984;18.204;2023-03-23T06:25:06;15.40;;;6.40;;
57309;SDS011;43153;50.984;18.204;2023-03-23T06:27:35;15.10;;;5.40;;
57309;SDS011;43153;50.984;18.204;2023-03-23T06:30:01;9.90;;;4.80;;
57309;SDS011;43153;50.984;18.204;2023-03-23T06:32:30;13.20;;;5.90;;
57309;SDS011;43153;50.984;18.204;2023-03-23T06:34:57;13.90;;;6.30;;
57309;SDS011;43153;50.984;18.204;2023-03-23T06:37:23;13.60;;;5.50;;
57309;SDS011;43153;50.984;18.204;2023-03-23T06:39:50;19.00;;;6.80;;
57309;SDS011;43153;50.984;18.204;2023-03-23T06:42:24;15.30;;;6.30;;
57309;SDS011;43153;50.984;18.204;2023-03-23T06:44:59;15.70;;;6.50;;
57309;SDS011;43153;50.984;18.204;2023-03-23T06:47:29;14.50;;;6.40;;
57309;SDS011;43153;50.984;18.204;2023-03-23T06:49:55;12.70;;;6.10;;
57309;SDS011;43153;50.984;18.204;2023-03-23T06:52:23;13.80;;;6.30;;
57309;SDS011;43153;50.984;18.204;2023-03-23T06:54:50;15.40;;;6.40;;
57309;SDS011;43153;50.984;18.204;2023-03-23T06:57:17;17.20;;;6.40;;
57309;SDS011;43153;50.984;18.204;2023-03-23T06:59:50;16.90;;;7.10;;
57309;SDS011;43153;50.984;18.204;2023-03-23T07:02:22;16.40;;;7.40;;
57309;SDS011;43153;50.984;18.204;2023-03-23T07:05:29;16.30;;;6.70;;
57309;SDS011;43153;50.984;18.204;2023-03-23T07:07:58;12.90;;;5.90;;
57309;SDS011;43153;50.984;18.204;2023-03-23T07:10:24;11.70;;;5.90;;
57309;SDS011;43153;50.984;18.204;2023-03-23T07:12:54;10.60;;;6.00;;
57309;SDS011;43153;50.984;18.204;2023-03-23T07:15:26;11.00;;;5.10;;
57309;SDS011;43153;50.984;18.204;2023-03-23T07:17:58;10.80;;;5.30;;
57309;SDS011;43153;50.984;18.204;2023-03-23T07:20:27;10.00;;;5.10;;
57309;SDS011;43153;50.984;18.204;2023-03-23T07:22:54;13.40;;;5.90;;
57309;SDS011;43153;50.984;18.204;2023-03-23T07:25:21;13.30;;;5.60;;
57309;SDS011;43153;50.984;18.204;2023-03-23T07:27:46;12.00;;;5.50;;
57309;SDS011;43153;50.984;18.204;2023-03-23T07:30:20;12.00;;;5.70;;
57309;SDS011;43153;50.984;18.204;2023-03-23T07:32:52;14.30;;;6.50;;
57309;SDS011;43153;50.984;18.204;2023-03-23T07:35:20;16.30;;;6.90;;
57309;SDS011;43153;50.984;18.204;2023-03-23T07:37:46;17.80;;;7.30;;
57309;SDS011;43153;50.984;18.204;2023-03-23T07:40:14;12.50;;;6.20;;
57309;SDS011;43153;50.984;18.204;2023-03-23T07:42:42;14.90;;;6.50;;
57309;SDS011;43153;50.984;18.204;2023-03-23T07:45:10;14.60;;;6.10;;
57309;SDS011;43153;50.984;18.204;2023-03-23T07:47:38;14.70;;;5.90;;
57309;SDS011;43153;50.984;18.204;2023-03-23T07:50:08;12.80;;;5.60;;
57309;SDS011;43153;50.984;18.204;2023-03-23T07:52:40;14.00;;;5.50;;
57309;SDS011;43153;50.984;18.204;2023-03-23T07:55:11;13.30;;;5.60;;
57309;SDS011;43153;50.984;18.204;2023-03-23T07:57:52;12.70;;;5.30;;
57309;SDS011;43153;50.984;18.204;2023-03-23T08:00:22;13.20;;;6.60;;
57309;SDS011;43153;50.984;18.204;2023-03-23T08:02:53;15.50;;;6.50;;
57309;SDS011;43153;50.984;18.204;2023-03-23T08:05:29;16.50;;;7.20;;
57309;SDS011;43153;50.984;18.204;2023-03-23T08:07:55;16.70;;;6.50;;
57309;SDS011;43153;50.984;18.204;2023-03-23T08:10:26;15.60;;;7.40;;
57309;SDS011;43153;50.984;18.204;2023-03-23T08:12:57;16.20;;;6.10;;
57309;SDS011;43153;50.984;18.204;2023-03-23T08:15:30;12.20;;;5.70;;
57309;SDS011;43153;50.984;18.204;2023-03-23T08:17:58;13.00;;;5.80;;
57309;SDS011;43153;50.984;18.204;2023-03-23T08:20:26;14.00;;;5.80;;
57309;SDS011;43153;50.984;18.204;2023-03-23T08:22:54;12.50;;;6.00;;
57309;SDS011;43153;50.984;18.204;2023-03-23T08:25:25;15.70;;;5.30;;
57309;SDS011;43153;50.984;18.204;2023-03-23T08:27:53;11.70;;;4.80;;
57309;SDS011;43153;50.984;18.204;2023-03-23T08:30:20;10.80;;;4.20;;
57309;SDS011;43153;50.984;18.204;2023-03-23T08:32:51;10.00;;;4.20;;
57309;SDS011;43153;50.984;18.204;2023-03-23T08:35:18;8.90;;;4.20;;
57309;SDS011;43153;50.984;18.204;2023-03-23T08:37:45;10.90;;;4.50;;
57309;SDS011;43153;50.984;18.204;2023-03-23T08:40:17;12.30;;;4.50;;
57309;SDS011;43153;50.984;18.204;2023-03-23T08:42:45;11.90;;;5.20;;
57309;SDS011;43153;50.984;18.204;2023-03-23T08:45:17;11.60;;;5.00;;
57309;SDS011;43153;50.984;18.204;2023-03-23T08:47:47;8.90;;;4.30;;
57309;SDS011;43153;50.984;18.204;2023-03-23T08:50:44;11.10;;;4.10;;
57309;SDS011;43153;50.984;18.204;2023-03-23T09:33:25;7.80;;;3.20;;
57309;SDS011;43153;50.984;18.204;2023-03-23T09:36:01;9.90;;;3.20;;
57309;SDS011;43153;50.984;18.204;2023-03-23T09:38:28;10.40;;;3.40;;
57309;SDS011;43153;50.984;18.204;2023-03-23T09:49:25;10.60;;;2.80;;
57309;SDS011;43153;50.984;18.204;2023-03-23T09:52:14;10.40;;;3.40;;
57309;SDS011;43153;50.984;18.204;2023-03-23T09:54:52;8.60;;;2.90;;
57309;SDS011;43153;50.984;18.204;2023-03-23T10:00:10;12.20;;;3.60;;
57309;SDS011;43153;50.984;18.204;2023-03-23T10:08:38;8.60;;;4.40;;
57309;SDS011;43153;50.984;18.204;2023-03-23T10:17:03;10.00;;;3.10;;
57309;SDS011;43153;50.984;18.204;2023-03-23T10:22:31;9.30;;;1.90;;
57309;SDS011;43153;50.984;18.204;2023-03-23T10:27:49;11.00;;;2.60;;
57309;SDS011;43153;50.984;18.204;2023-03-23T10:30:30;10.70;;;2.30;;
57309;SDS011;43153;50.984;18.204;2023-03-23T10:33:26;4.90;;;1.70;;
57309;SDS011;43153;50.984;18.204;2023-03-23T10:39:23;7.70;;;2.00;;
57309;SDS011;43153;50.984;18.204;2023-03-23T10:41:53;5.20;;;1.40;;
57309;SDS011;43153;50.984;18.204;2023-03-23T10:44:32;4.20;;;1.30;;
57309;SDS011;43153;50.984;18.204;2023-03-23T10:47:06;3.50;;;1.30;;
57309;SDS011;43153;50.984;18.204;2023-03-23T10:49:43;7.10;;;1.40;;
57309;SDS011;43153;50.984;18.204;2023-03-23T10:52:25;5.40;;;1.20;;
57309;SDS011;43153;50.984;18.204;2023-03-23T10:55:07;5.20;;;1.70;;
57309;SDS011;43153;50.984;18.204;2023-03-23T10:57:42;3.70;;;0.80;;
57309;SDS011;43153;50.984;18.204;2023-03-23T11:00:20;4.70;;;0.70;;
57309;SDS011;43153;50.984;18.204;2023-03-23T11:03:01;3.50;;;0.70;;
57309;SDS011;43153;50.984;18.204;2023-03-23T11:05:34;5.50;;;0.80;;
57309;SDS011;43153;50.984;18.204;2023-03-23T11:08:16;4.60;;;1.10;;
57309;SDS011;43153;50.984;18.204;2023-03-23T11:11:06;4.00;;;1.00;;
57309;SDS011;43153;50.984;18.204;2023-03-23T11:13:47;6.10;;;1.10;;
57309;SDS011;43153;50.984;18.204;2023-03-23T11:16:41;2.80;;;1.00;;
57309;SDS011;43153;50.984;18.204;2023-03-23T11:19:14;4.60;;;1.10;;
57309;SDS011;43153;50.984;18.204;2023-03-23T11:22:07;5.90;;;1.00;;
57309;SDS011;43153;50.984;18.204;2023-03-23T11:24:45;5.20;;;1.30;;
57309;SDS011;43153;50.984;18.204;2023-03-23T11:27:13;2.80;;;0.90;;
57309;SDS011;43153;50.984;18.204;2023-03-23T11:29:57;5.40;;;0.90;;
57309;SDS011;43153;50.984;18.204;2023-03-23T11:32:37;4.70;;;1.30;;
57309;SDS011;43153;50.984;18.204;2023-03-23T11:35:21;5.20;;;0.60;;
57309;SDS011;43153;50.984;18.204;2023-03-23T11:40:29;6.30;;;1.00;;
57309;SDS011;43153;50.984;18.204;2023-03-23T11:42:59;12.60;;;2.10;;
57309;SDS011;43153;50.984;18.204;2023-03-23T11:45:38;4.30;;;1.40;;
57309;SDS011;43153;50.984;18.204;2023-03-23T11:51:02;4.80;;;0.70;;
57309;SDS011;43153;50.984;18.204;2023-03-23T11:56:29;5.90;;;1.20;;
57309;SDS011;43153;50.984;18.204;2023-03-23T11:59:05;6.70;;;0.80;;
57309;SDS011;43153;50.984;18.204;2023-03-23T12:07:43;5.10;;;0.90;;
57309;SDS011;43153;50.984;18.204;2023-03-23T12:11:05;3.20;;;0.80;;
57309;SDS011;43153;50.984;18.204;2023-03-23T12:13:46;3.80;;;1.00;;
57309;SDS011;43153;50.984;18.204;2023-03-23T12:30:21;4.20;;;1.20;;
57309;SDS011;43153;50.984;18.204;2023-03-23T12:41:24;2.70;;;0.90;;
57309;SDS011;43153;50.984;18.204;2023-03-23T12:43:59;4.20;;;1.00;;
57309;SDS011;43153;50.984;18.204;2023-03-23T12:54:42;5.50;;;1.10;;
57309;SDS011;43153;50.984;18.204;2023-03-23T13:00:58;3.10;;;1.20;;
57309;SDS011;43153;50.984;18.204;2023-03-23T13:06:31;3.30;;;1.00;;
57309;SDS011;43153;50.984;18.204;2023-03-23T13:11:43;3.80;;;1.20;;
57309;SDS011;43153;50.984;18.204;2023-03-23T13:20:43;3.70;;;0.90;;
57309;SDS011;43153;50.984;18.204;2023-03-23T13:23:27;3.80;;;1.10;;
57309;SDS011;43153;50.984;18.204;2023-03-23T13:26:02;3.20;;;0.80;;
57309;SDS011;43153;50.984;18.204;2023-03-23T13:29:19;5.00;;;1.10;;
57309;SDS011;43153;50.984;18.204;2023-03-23T13:36:34;6.10;;;1.30;;
57309;SDS011;43153;50.984;18.204;2023-03-23T13:39:47;4.10;;;1.20;;
57309;SDS011;43153;50.984;18.204;2023-03-23T13:50:01;4.30;;;1.10;;
57309;SDS011;43153;50.984;18.204;2023-03-23T13:55:48;4.50;;;1.00;;
57309;SDS011;43153;50.984;18.204;2023-03-23T13:58:25;2.70;;;0.90;;
57309;SDS011;43153;50.984;18.204;2023-03-23T14:08:47;6.20;;;1.70;;
57309;SDS011;43153;50.984;18.204;2023-03-23T14:20:45;4.10;;;1.10;;
57309;SDS011;43153;50.984;18.204;2023-03-23T14:23:42;4.90;;;1.00;;
57309;SDS011;43153;50.984;18.204;2023-03-23T14:26:15;4.10;;;1.30;;
57309;SDS011;43153;50.984;18.204;2023-03-23T14:28:58;7.20;;;1.70;;
57309;SDS011;43153;50.984;18.204;2023-03-23T14:31:26;7.40;;;2.20;;
57309;SDS011;43153;50.984;18.204;2023-03-23T14:33:54;5.90;;;1.50;;
57309;SDS011;43153;50.984;18.204;2023-03-23T14:36:26;7.90;;;2.80;;
57309;SDS011;43153;50.984;18.204;2023-03-23T14:39:39;15.70;;;7.70;;
57309;SDS011;43153;50.984;18.204;2023-03-23T14:42:19;12.20;;;4.60;;
57309;SDS011;43153;50.984;18.204;2023-03-23T14:44:55;8.50;;;2.50;;
57309;SDS011;43153;50.984;18.204;2023-03-23T14:47:29;7.00;;;2.40;;
57309;SDS011;43153;50.984;18.204;2023-03-23T14:50:00;10.10;;;2.20;;
57309;SDS011;43153;50.984;18.204;2023-03-23T14:52:33;10.40;;;3.80;;
57309;SDS011;43153;50.984;18.204;2023-03-23T14:55:12;13.50;;;5.90;;
57309;SDS011;43153;50.984;18.204;2023-03-23T14:57:48;20.10;;;9.80;;
57309;SDS011;43153;50.984;18.204;2023-03-23T15:00:15;15.50;;;7.00;;
57309;SDS011;43153;50.984;18.204;2023-03-23T15:05:21;18.50;;;7.40;;
57309;SDS011;43153;50.984;18.204;2023-03-23T15:07:55;17.80;;;7.00;;
57309;SDS011;43153;50.984;18.204;2023-03-23T15:10:25;11.60;;;4.60;;
57309;SDS011;43153;50.984;18.204;2023-03-23T15:12:52;13.50;;;4.70;;
57309;SDS011;43153;50.984;18.204;2023-03-23T15:15:30;14.30;;;3.70;;
57309;SDS011;43153;50.984;18.204;2023-03-23T15:17:59;11.60;;;4.40;;
57309;SDS011;43153;50.984;18.204;2023-03-23T15:20:30;14.10;;;5.90;;
57309;SDS011;43153;50.984;18.204;2023-03-23T16:02:18;17.10;;;8.10;;
57309;SDS011;43153;50.984;18.204;2023-03-23T16:04:51;16.20;;;6.50;;
57309;SDS011;43153;50.984;18.204;2023-03-23T16:07:21;12.70;;;4.70;;
57309;SDS011;43153;50.984;18.204;2023-03-23T16:09:56;11.10;;;4.30;;
57309;SDS011;43153;50.984;18.204;2023-03-23T16:12:24;12.10;;;3.90;;
57309;SDS011;43153;50.984;18.204;2023-03-23T16:14:54;8.20;;;3.10;;
57309;SDS011;43153;50.984;18.204;2023-03-23T16:20:12;12.40;;;3.90;;
57309;SDS011;43153;50.984;18.204;2023-03-23T16:22:49;12.00;;;4.40;;
57309;SDS011;43153;50.984;18.204;2023-03-23T16:25:20;11.10;;;4.00;;
57309;SDS011;43153;50.984;18.204;2023-03-23T16:27:50;11.10;;;3.60;;
57309;SDS011;43153;50.984;18.204;2023-03-23T16:30:27;11.90;;;4.90;;
57309;SDS011;43153;50.984;18.204;2023-03-23T16:33:02;11.80;;;3.80;;
57309;SDS011;43153;50.984;18.204;2023-03-23T16:35:27;9.70;;;3.40;;
57309;SDS011;43153;50.984;18.204;2023-03-23T16:37:55;12.10;;;3.30;;
57309;SDS011;43153;50.984;18.204;2023-03-23T16:40:23;8.30;;;3.10;;
57309;SDS011;43153;50.984;18.204;2023-03-23T16:42:49;7.50;;;3.10;;
57309;SDS011;43153;50.984;18.204;2023-03-23T16:45:16;9.20;;;3.50;;
57309;SDS011;43153;50.984;18.204;2023-03-23T16:47:48;6.80;;;2.30;;
57309;SDS011;43153;50.984;18.204;2023-03-23T16:50:23;7.30;;;2.50;;
57309;SDS011;43153;50.984;18.204;2023-03-23T16:52:51;8.80;;;3.70;;
57309;SDS011;43153;50.984;18.204;2023-03-23T16:56:06;10.10;;;4.00;;
57309;SDS011;43153;50.984;18.204;2023-03-23T16:59:16;13.60;;;4.20;;
57309;SDS011;43153;50.984;18.204;2023-03-23T17:01:49;11.40;;;4.30;;
57309;SDS011;43153;50.984;18.204;2023-03-23T17:04:20;11.00;;;4.10;;
57309;SDS011;43153;50.984;18.204;2023-03-23T17:07:02;16.70;;;5.40;;
57309;SDS011;43153;50.984;18.204;2023-03-23T17:09:28;34.50;;;11.40;;
57309;SDS011;43153;50.984;18.204;2023-03-23T17:11:54;39.30;;;11.40;;
57309;SDS011;43153;50.984;18.204;2023-03-23T17:14:21;19.60;;;7.00;;
57309;SDS011;43153;50.984;18.204;2023-03-23T17:16:47;12.30;;;4.80;;
57309;SDS011;43153;50.984;18.204;2023-03-23T17:19:16;11.00;;;3.80;;
57309;SDS011;43153;50.984;18.204;2023-03-23T17:21:43;16.00;;;3.70;;
57309;SDS011;43153;50.984;18.204;2023-03-23T17:24:10;11.80;;;4.30;;
57309;SDS011;43153;50.984;18.204;2023-03-23T17:26:37;9.60;;;3.80;;
57309;SDS011;43153;50.984;18.204;2023-03-23T17:29:05;11.40;;;4.20;;
57309;SDS011;43153;50.984;18.204;2023-03-23T17:31:31;13.50;;;5.10;;
57309;SDS011;43153;50.984;18.204;2023-03-23T17:33:57;14.60;;;5.50;;
57309;SDS011;43153;50.984;18.204;2023-03-23T17:36:23;19.40;;;6.30;;
57309;SDS011;43153;50.984;18.204;2023-03-23T17:38:49;15.90;;;6.70;;
57309;SDS011;43153;50.984;18.204;2023-03-23T17:41:17;16.70;;;7.50;;
57309;SDS011;43153;50.984;18.204;2023-03-23T17:43:46;14.60;;;5.90;;
57309;SDS011;43153;50.984;18.204;2023-03-23T17:46:20;20.20;;;5.50;;
57309;SDS011;43153;50.984;18.204;2023-03-23T17:48:54;12.40;;;5.10;;
57309;SDS011;43153;50.984;18.204;2023-03-23T17:51:21;16.10;;;5.80;;
57309;SDS011;43153;50.984;18.204;2023-03-23T17:53:51;16.20;;;7.30;;
57309;SDS011;43153;50.984;18.204;2023-03-23T17:56:16;17.20;;;6.40;;
57309;SDS011;43153;50.984;18.204;2023-03-23T17:58:42;11.30;;;4.90;;
57309;SDS011;43153;50.984;18.204;2023-03-23T18:01:09;12.20;;;4.10;;
57309;SDS011;43153;50.984;18.204;2023-03-23T18:03:35;16.50;;;6.00;;
57309;SDS011;43153;50.984;18.204;2023-03-23T18:06:03;17.30;;;6.10;;
57309;SDS011;43153;50.984;18.204;2023-03-23T18:08:32;13.60;;;6.80;;
57309;SDS011;43153;50.984;18.204;2023-03-23T18:11:01;14.10;;;6.10;;
57309;SDS011;43153;50.984;18.204;2023-03-23T18:13:28;9.40;;;3.80;;
57309;SDS011;43153;50.984;18.204;2023-03-23T18:15:56;12.60;;;4.60;;
57309;SDS011;43153;50.984;18.204;2023-03-23T18:18:25;12.70;;;3.80;;
57309;SDS011;43153;50.984;18.204;2023-03-23T18:20:55;10.60;;;3.40;;
57309;SDS011;43153;50.984;18.204;2023-03-23T18:23:27;13.00;;;3.00;;
57309;SDS011;43153;50.984;18.204;2023-03-23T18:25:54;8.30;;;2.40;;
57309;SDS011;43153;50.984;18.204;2023-03-23T18:28:20;8.10;;;2.30;;
57309;SDS011;43153;50.984;18.204;2023-03-23T18:30:47;7.00;;;2.20;;
57309;SDS011;43153;50.984;18.204;2023-03-23T18:33:19;12.20;;;3.00;;
57309;SDS011;43153;50.984;18.204;2023-03-23T18:35:46;8.00;;;1.60;;
57309;SDS011;43153;50.984;18.204;2023-03-23T18:38:23;10.80;;;2.80;;
57309;SDS011;43153;50.984;18.204;2023-03-23T18:40:49;8.70;;;3.00;;
57309;SDS011;43153;50.984;18.204;2023-03-23T18:43:15;8.60;;;2.30;;
57309;SDS011;43153;50.984;18.204;2023-03-23T18:45:41;7.00;;;1.60;;
57309;SDS011;43153;50.984;18.204;2023-03-23T18:48:13;6.70;;;2.20;;
57309;SDS011;43153;50.984;18.204;2023-03-23T18:50:39;9.90;;;2.20;;
57309;SDS011;43153;50.984;18.204;2023-03-23T18:53:12;7.40;;;2.20;;
57309;SDS011;43153;50.984;18.204;2023-03-23T18:55:39;5.40;;;2.00;;
57309;SDS011;43153;50.984;18.204;2023-03-23T18:58:05;7.10;;;1.80;;
57309;SDS011;43153;50.984;18.204;2023-03-23T19:00:32;4.30;;;1.20;;
57309;SDS011;43153;50.984;18.204;2023-03-23T19:03:00;6.20;;;1.90;;
57309;SDS011;43153;50.984;18.204;2023-03-23T19:05:34;11.50;;;2.40;;
57309;SDS011;43153;50.984;18.204;2023-03-23T19:08:02;9.40;;;2.80;;
57309;SDS011;43153;50.984;18.204;2023-03-23T19:10:28;7.80;;;2.90;;
57309;SDS011;43153;50.984;18.204;2023-03-23T19:12:55;8.10;;;2.60;;
57309;SDS011;43153;50.984;18.204;2023-03-23T19:15:23;10.10;;;2.90;;
57309;SDS011;43153;50.984;18.204;2023-03-23T19:17:55;7.40;;;2.60;;
57309;SDS011;43153;50.984;18.204;2023-03-23T19:20:22;7.80;;;2.60;;
57309;SDS011;43153;50.984;18.204;2023-03-23T19:22:49;8.00;;;2.10;;
57309;SDS011;43153;50.984;18.204;2023-03-23T19:25:17;6.90;;;2.10;;